Time;durP1;ratioP1;P1;durP2;ratioP2;P2;SDS_P1;SDS_P2;PMS_P1;PMS_P2;Temp;Humidity;BMP_temperature;BMP_pressure;BME280_temperature;BME280_humidity;BME280_pressure;Samples;Min_cycle;Max_cycle;Signal;HPM_P1;HPM_P2
2022/06/07 00:01:22;;;;;;;13.70;7.05;;;15.50;82.30;;;;;;6245743;22;20152;-88
2022/06/07 00:03:48;;;;;;;11.32;7.30;;;15.60;81.60;;;;;;6244381;23;20176;-89
2022/06/07 00:06:14;;;;;;;8.13;6.93;;;15.70;81.50;;;;;;6244239;23;20156;-88
2022/06/07 00:08:39;;;;;;;7.67;6.60;;;15.70;81.40;;;;;;6243818;23;20207;-88
2022/06/07 00:11:05;;;;;;;8.37;5.63;;;15.70;80.80;;;;;;6244178;22;20271;-88
2022/06/07 00:13:32;;;;;;;6.07;5.47;;;15.70;81.10;;;;;;6244040;22;20206;-88
2022/06/07 00:15:58;;;;;;;9.43;5.35;;;15.80;80.50;;;;;;6245951;22;20183;-88
2022/06/07 00:18:23;;;;;;;6.90;5.20;;;15.80;79.70;;;;;;6245286;22;20168;-87
2022/06/07 00:20:49;;;;;;;8.10;6.03;;;15.70;79.40;;;;;;6245236;22;20230;-88
2022/06/07 00:23:17;;;;;;;7.43;5.20;;;15.70;79.20;;;;;;6244048;23;20152;-88
2022/06/07 00:25:45;;;;;;;9.00;5.20;;;15.70;79.10;;;;;;6243286;22;20209;-89
2022/06/07 00:28:12;;;;;;;8.38;5.25;;;15.70;78.80;;;;;;6244718;22;20196;-88
2022/06/07 00:30:38;;;;;;;11.25;5.70;;;15.70;78.60;;;;;;6245716;23;20754;-88
2022/06/07 00:33:05;;;;;;;7.15;4.70;;;15.70;78.20;;;;;;6245742;22;20570;-89
2022/06/07 00:35:31;;;;;;;13.00;5.90;;;15.70;78.20;;;;;;6249684;23;20176;-89
2022/06/07 00:37:57;;;;;;;7.35;3.58;;;15.70;78.50;;;;;;6243448;22;20622;-89
2022/06/07 00:40:22;;;;;;;6.60;5.10;;;15.70;77.90;;;;;;6245819;22;20176;-89
2022/06/07 00:42:48;;;;;;;11.30;4.93;;;15.60;78.10;;;;;;6243893;23;20417;-89
2022/06/07 00:45:17;;;;;;;5.40;4.43;;;15.60;78.40;;;;;;6243534;23;20161;-88
2022/06/07 00:47:43;;;;;;;4.30;3.55;;;15.50;78.30;;;;;;6243365;23;20623;-90
2022/06/07 00:50:18;;;;;;;4.45;4.00;;;15.50;78.60;;;;;;6245005;22;20163;-89
2022/06/07 00:52:45;;;;;;;4.70;3.80;;;15.50;78.50;;;;;;6243676;23;20198;-89
2022/06/07 00:55:21;;;;;;;6.18;4.47;;;15.40;78.00;;;;;;6243409;22;20337;-89
2022/06/07 00:57:46;;;;;;;6.85;4.00;;;15.40;78.70;;;;;;6243442;23;20256;-89
2022/06/07 01:00:15;;;;;;;6.03;4.10;;;15.40;78.60;;;;;;6243733;23;20618;-89
2022/06/07 01:02:41;;;;;;;5.45;3.80;;;15.30;78.70;;;;;;6243752;23;20150;-89
2022/06/07 01:05:07;;;;;;;4.63;4.23;;;15.40;78.70;;;;;;6243532;22;20152;-89
2022/06/07 01:13:01;;;;;;;4.28;3.78;;;15.30;78.50;;;;;;6243925;23;20151;-89
2022/06/07 01:15:26;;;;;;;7.60;4.30;;;15.20;78.90;;;;;;6243422;22;20279;-89
2022/06/07 01:17:52;;;;;;;6.90;4.87;;;15.30;79.60;;;;;;6242693;23;20588;-89
2022/06/07 01:20:37;;;;;;;8.13;4.37;;;15.20;79.00;;;;;;6243319;22;20198;-88
2022/06/07 01:23:03;;;;;;;14.20;5.43;;;15.20;79.10;;;;;;6243240;23;20591;-89
2022/06/07 01:25:29;;;;;;;5.87;4.27;;;15.20;78.60;;;;;;6244976;22;20163;-89
2022/06/07 01:27:54;;;;;;;6.18;4.10;;;15.10;78.70;;;;;;6243021;22;20665;-89
2022/06/07 01:30:21;;;;;;;6.77;4.30;;;15.10;79.40;;;;;;6218193;23;20172;-89
2022/06/07 01:32:47;;;;;;;5.28;4.75;;;15.10;79.30;;;;;;6243164;22;20161;-89
2022/06/07 01:35:13;;;;;;;7.63;4.10;;;15.10;79.20;;;;;;6244894;22;20627;-89
2022/06/07 01:37:39;;;;;;;5.53;4.50;;;15.00;79.20;;;;;;6243129;23;20271;-89
2022/06/07 01:42:50;;;;;;;5.05;4.28;;;15.00;79.40;;;;;;6247134;23;20519;-89
2022/06/07 01:45:16;;;;;;;6.77;4.10;;;15.00;79.60;;;;;;6247054;22;20599;-88
2022/06/07 01:47:42;;;;;;;7.23;5.27;;;15.00;80.40;;;;;;6246551;22;20169;-89
2022/06/07 01:50:08;;;;;;;5.87;4.40;;;15.00;79.40;;;;;;6220245;23;20187;-89
2022/06/07 01:52:35;;;;;;;7.20;4.32;;;15.00;79.80;;;;;;6247287;22;20182;-90
2022/06/07 01:55:20;;;;;;;5.25;3.95;;;15.00;79.40;;;;;;6252321;23;20275;-90
2022/06/07 01:57:46;;;;;;;8.80;4.20;;;15.10;79.70;;;;;;6245041;23;20172;-88
2022/06/07 02:00:12;;;;;;;6.60;4.00;;;15.10;79.50;;;;;;6245268;23;20688;-89
2022/06/07 02:02:38;;;;;;;9.15;4.75;;;15.10;79.20;;;;;;6246661;22;20169;-89
2022/06/07 02:05:04;;;;;;;5.93;4.30;;;15.10;79.00;;;;;;6244915;22;20156;-89
2022/06/07 02:07:30;;;;;;;8.83;4.20;;;15.10;79.20;;;;;;6244722;23;20670;-89
2022/06/07 02:09:55;;;;;;;5.70;3.90;;;15.10;78.90;;;;;;6245132;22;20770;-89
2022/06/07 02:12:21;;;;;;;5.27;4.23;;;15.10;79.20;;;;;;6195080;23;20160;-89
2022/06/07 02:14:47;;;;;;;5.00;4.30;;;15.10;79.20;;;;;;6245209;23;20644;-89
2022/06/07 02:17:13;;;;;;;4.83;4.00;;;15.10;78.50;;;;;;6246583;22;20232;-89
2022/06/07 02:19:39;;;;;;;5.00;3.85;;;15.10;79.00;;;;;;6244842;22;20770;-88
2022/06/07 02:22:05;;;;;;;4.63;4.13;;;15.10;79.00;;;;;;6244821;23;20178;-88
2022/06/07 02:24:31;;;;;;;5.07;4.57;;;15.00;79.00;;;;;;6245218;23;20862;-88
2022/06/07 02:27:03;;;;;;;6.00;4.37;;;15.00;79.30;;;;;;6246581;22;20172;-88
2022/06/07 02:29:38;;;;;;;5.63;4.28;;;15.00;79.20;;;;;;6245388;23;20599;-87
2022/06/07 02:32:18;;;;;;;5.68;4.53;;;15.00;79.20;;;;;;6245595;23;20163;-88
2022/06/07 02:34:47;;;;;;;9.93;5.07;;;14.90;78.80;;;;;;6246343;22;20168;-88
2022/06/07 02:37:13;;;;;;;6.60;4.70;;;14.90;79.70;;;;;;6244686;22;20208;-88
2022/06/07 02:39:40;;;;;;;5.72;4.78;;;14.80;79.80;;;;;;6246549;22;20172;-88
2022/06/07 02:42:07;;;;;;;4.68;4.10;;;14.80;79.40;;;;;;6245646;23;20610;-88
2022/06/07 02:44:33;;;;;;;4.95;4.45;;;14.80;79.50;;;;;;6244953;22;20153;-88
2022/06/07 02:46:59;;;;;;;6.72;4.43;;;14.80;79.70;;;;;;6246065;22;20202;-88
2022/06/07 02:49:26;;;;;;;5.43;4.27;;;14.80;79.70;;;;;;6244459;22;20181;-87
2022/06/07 02:51:51;;;;;;;6.20;4.65;;;14.70;79.50;;;;;;6244157;23;20164;-87
2022/06/07 02:54:17;;;;;;;6.40;4.90;;;14.80;79.80;;;;;;6246825;23;20180;-88
2022/06/07 02:56:43;;;;;;;7.90;4.70;;;14.70;79.60;;;;;;6244248;23;20156;-88
2022/06/07 02:59:08;;;;;;;8.13;4.87;;;14.70;80.00;;;;;;6244598;22;20252;-88
2022/06/07 03:01:34;;;;;;;8.43;4.70;;;14.70;80.00;;;;;;6244593;23;20704;-88
2022/06/07 03:04:00;;;;;;;6.30;4.80;;;14.70;79.60;;;;;;6244488;22;20211;-87
2022/06/07 03:06:26;;;;;;;5.53;4.40;;;14.70;80.40;;;;;;6244380;22;20156;-88
2022/06/07 03:08:52;;;;;;;7.15;4.80;;;14.60;79.90;;;;;;6245938;22;20169;-88
2022/06/07 03:11:17;;;;;;;8.80;5.27;;;14.60;80.30;;;;;;6244465;23;20633;-88
2022/06/07 03:13:43;;;;;;;5.90;5.00;;;14.60;80.40;;;;;;6246117;22;20208;-88
2022/06/07 03:16:09;;;;;;;6.17;5.57;;;14.60;80.50;;;;;;6245877;23;20704;-88
2022/06/07 03:18:34;;;;;;;7.17;5.60;;;14.60;80.50;;;;;;6243923;22;20169;-87
2022/06/07 03:21:00;;;;;;;5.83;5.27;;;14.50;80.40;;;;;;6245900;23;20144;-89
2022/06/07 03:23:26;;;;;;;6.23;4.50;;;14.60;80.50;;;;;;6245864;22;20172;-89
2022/06/07 03:26:01;;;;;;;8.87;4.90;;;14.50;80.50;;;;;;6244668;23;20406;-89
2022/06/07 03:28:26;;;;;;;6.40;4.75;;;14.50;80.70;;;;;;6246239;22;20387;-88
2022/06/07 03:30:52;;;;;;;8.30;4.87;;;14.50;80.90;;;;;;6244903;23;20163;-88
2022/06/07 03:33:18;;;;;;;9.73;5.47;;;14.40;80.80;;;;;;6244941;23;20160;-88
2022/06/07 03:35:43;;;;;;;6.10;5.10;;;14.40;80.90;;;;;;6244427;22;20180;-88
2022/06/07 03:38:09;;;;;;;7.43;5.50;;;14.40;80.80;;;;;;6247073;23;20235;-88
2022/06/07 03:40:44;;;;;;;6.50;4.87;;;14.40;80.90;;;;;;6245773;23;20156;-87
2022/06/07 03:43:11;;;;;;;10.25;5.05;;;14.40;81.00;;;;;;6244637;23;20152;-87
2022/06/07 03:45:39;;;;;;;6.72;4.72;;;14.40;82.10;;;;;;6244570;23;20486;-87
2022/06/07 03:48:05;;;;;;;6.97;4.97;;;14.40;81.20;;;;;;6244763;23;20176;-87
2022/06/07 03:50:31;;;;;;;8.00;5.93;;;14.40;80.90;;;;;;6244957;23;20163;-87
2022/06/07 03:52:56;;;;;;;11.20;6.43;;;14.40;80.90;;;;;;6244900;23;20243;-86
2022/06/07 03:55:22;;;;;;;10.87;5.27;;;14.40;81.20;;;;;;6244985;23;20177;-87
2022/06/07 03:57:48;;;;;;;5.90;4.50;;;14.40;81.00;;;;;;6244613;22;20251;-88
2022/06/07 04:00:14;;;;;;;6.67;4.83;;;14.40;81.20;;;;;;6244921;22;20279;-88
2022/06/07 04:02:41;;;;;;;8.70;5.90;;;14.40;80.90;;;;;;6246134;22;20370;-88
2022/06/07 04:05:07;;;;;;;7.68;5.35;;;14.40;81.20;;;;;;6221998;23;20422;-87
2022/06/07 04:10:17;;;;;;;6.90;5.05;;;14.40;81.30;;;;;;6249926;23;20210;-88
2022/06/07 04:12:42;;;;;;;8.77;5.43;;;14.50;81.50;;;;;;6250919;22;20149;-88
2022/06/07 04:15:08;;;;;;;8.90;5.87;;;14.50;81.70;;;;;;6249899;23;20179;-88
2022/06/07 04:17:34;;;;;;;6.03;4.43;;;14.50;81.60;;;;;;6252838;22;20145;-88
2022/06/07 04:20:00;;;;;;;5.93;4.67;;;14.60;80.80;;;;;;6247949;23;20191;-87
2022/06/07 04:22:25;;;;;;;6.13;5.53;;;14.60;80.70;;;;;;6267278;23;20180;-88
2022/06/07 04:24:51;;;;;;;8.07;5.57;;;14.60;80.70;;;;;;6270571;22;20162;-87
2022/06/07 04:27:17;;;;;;;8.00;5.27;;;14.60;80.90;;;;;;6270810;22;20172;-87
2022/06/07 04:29:42;;;;;;;5.73;5.00;;;14.60;80.80;;;;;;6272593;22;20411;-87
2022/06/07 04:32:08;;;;;;;7.30;4.90;;;14.60;80.60;;;;;;6271958;22;20168;-87
2022/06/07 04:34:34;;;;;;;7.40;6.40;;;14.70;80.20;;;;;;6272987;22;20168;-86
2022/06/07 04:37:00;;;;;;;6.90;4.90;;;14.70;80.50;;;;;;6272213;22;20387;-87
2022/06/07 04:39:25;;;;;;;11.90;6.03;;;14.70;80.60;;;;;;6271208;22;20199;-88
2022/06/07 04:41:51;;;;;;;15.47;5.80;;;14.70;80.80;;;;;;6269996;22;20637;-87
2022/06/07 04:44:17;;;;;;;6.53;5.77;;;14.70;80.50;;;;;;6254028;23;20149;-87
2022/06/07 04:46:43;;;;;;;8.77;6.20;;;14.70;80.40;;;;;;6244696;22;20395;-87
2022/06/07 04:49:08;;;;;;;11.50;5.87;;;14.80;80.40;;;;;;6245752;22;21023;-88
2022/06/07 04:51:38;;;;;;;8.13;5.70;;;14.90;80.60;;;;;;6245464;22;20359;-87
2022/06/07 04:54:04;;;;;;;11.20;6.05;;;14.90;80.50;;;;;;6246199;22;20656;-87
2022/06/07 04:56:33;;;;;;;9.05;5.70;;;15.00;80.10;;;;;;6244598;23;20163;-85
2022/06/07 04:59:00;;;;;;;7.10;5.25;;;15.10;79.30;;;;;;6244048;22;20176;-87
2022/06/07 05:01:31;;;;;;;9.43;5.20;;;15.10;78.70;;;;;;6244247;22;20175;-87
2022/06/07 05:03:57;;;;;;;7.30;5.35;;;15.20;79.00;;;;;;6244090;23;20171;-87
2022/06/07 05:06:26;;;;;;;8.05;4.80;;;15.30;78.90;;;;;;6244033;22;20623;-87
2022/06/07 05:08:57;;;;;;;14.88;5.93;;;15.30;78.70;;;;;;6243670;23;20186;-87
2022/06/07 05:11:23;;;;;;;6.00;4.75;;;15.40;78.10;;;;;;6245245;22;20164;-88
2022/06/07 05:14:00;;;;;;;9.40;5.75;;;15.40;78.10;;;;;;6243606;23;20208;-88
2022/06/07 05:16:26;;;;;;;9.38;5.35;;;15.50;77.50;;;;;;6245647;23;20152;-87
2022/06/07 05:18:53;;;;;;;8.32;4.65;;;15.70;77.00;;;;;;6245147;22;20177;-87
2022/06/07 05:21:20;;;;;;;7.47;5.50;;;15.90;76.50;;;;;;6248464;22;20163;-87
2022/06/07 05:23:47;;;;;;;5.93;4.53;;;16.10;75.80;;;;;;6248614;22;20202;-86
2022/06/07 05:26:20;;;;;;;10.05;3.85;;;16.20;74.90;;;;;;6247085;23;20156;-87
2022/06/07 05:28:48;;;;;;;8.27;4.65;;;16.60;73.30;;;;;;6248411;22;20188;-86
2022/06/07 05:31:14;;;;;;;5.13;3.55;;;17.00;72.70;;;;;;6247339;23;20156;-88
2022/06/07 05:33:39;;;;;;;5.87;3.90;;;17.50;70.60;;;;;;6246174;22;20234;-88
2022/06/07 05:36:06;;;;;;;7.43;3.87;;;17.60;69.20;;;;;;6246405;23;20441;-87
2022/06/07 05:38:32;;;;;;;7.45;4.07;;;17.70;68.30;;;;;;6246444;22;20184;-87
2022/06/07 05:40:58;;;;;;;6.22;4.03;;;17.50;68.50;;;;;;6246569;22;20153;-87
2022/06/07 05:43:28;;;;;;;8.37;4.27;;;17.50;68.80;;;;;;6246839;22;20160;-87
2022/06/07 05:45:55;;;;;;;6.82;4.45;;;17.70;67.70;;;;;;6247722;22;20375;-87
2022/06/07 05:48:22;;;;;;;5.30;4.25;;;17.60;67.50;;;;;;6246690;23;20207;-87
2022/06/07 05:50:48;;;;;;;7.80;4.40;;;17.60;68.10;;;;;;6246781;23;20210;-87
2022/06/07 05:53:15;;;;;;;7.32;4.50;;;17.60;68.20;;;;;;6246646;22;20637;-87
2022/06/07 05:55:42;;;;;;;8.18;4.50;;;17.50;68.40;;;;;;6247290;22;20180;-86
2022/06/07 05:58:08;;;;;;;6.85;4.00;;;17.50;68.30;;;;;;6248046;22;20228;-89
2022/06/07 06:00:35;;;;;;;8.05;4.70;;;17.50;68.60;;;;;;6247384;23;20217;-88
2022/06/07 06:03:01;;;;;;;10.60;4.80;;;17.60;68.10;;;;;;6248343;22;20235;-88
2022/06/07 06:05:27;;;;;;;5.57;5.00;;;17.60;68.50;;;;;;6251312;22;20156;-87
2022/06/07 06:10:37;;;;;;;10.52;5.07;;;17.50;68.40;;;;;;6249788;22;20566;-87
2022/06/07 06:13:04;;;;;;;5.23;3.90;;;17.60;68.30;;;;;;6246823;22;20156;-88
2022/06/07 06:15:29;;;;;;;5.88;4.00;;;17.90;67.50;;;;;;6246350;22;20181;-87
2022/06/07 06:17:55;;;;;;;7.20;4.60;;;18.00;67.60;;;;;;6247727;23;20195;-87
2022/06/07 06:20:22;;;;;;;7.00;4.00;;;18.10;67.50;;;;;;6247731;22;20159;-87
2022/06/07 06:22:48;;;;;;;4.25;3.85;;;18.10;67.20;;;;;;6246335;22;20653;-87
2022/06/07 06:25:14;;;;;;;5.63;3.65;;;18.30;67.80;;;;;;6250058;23;20250;-87
2022/06/07 06:27:40;;;;;;;7.80;3.23;;;18.30;66.60;;;;;;6249173;22;20180;-87
2022/06/07 06:30:07;;;;;;;5.80;3.33;;;18.50;65.60;;;;;;6247529;22;20192;-88
2022/06/07 06:32:44;;;;;;;4.43;3.15;;;18.70;64.40;;;;;;6246359;23;20156;-87
2022/06/07 06:35:10;;;;;;;7.00;3.63;;;18.80;64.40;;;;;;6246343;23;20630;-87
2022/06/07 06:37:36;;;;;;;4.57;3.38;;;18.80;64.50;;;;;;6247378;22;20216;-87
2022/06/07 06:40:02;;;;;;;5.60;3.27;;;18.70;64.70;;;;;;6249196;23;20152;-88
2022/06/07 06:42:28;;;;;;;5.80;2.97;;;18.70;64.40;;;;;;6249614;22;20384;-88
2022/06/07 06:44:55;;;;;;;6.77;3.80;;;18.80;64.80;;;;;;6246942;22;20388;-88
2022/06/07 06:47:21;;;;;;;5.30;3.03;;;18.80;64.20;;;;;;6246105;22;20384;-87
2022/06/07 06:49:48;;;;;;;5.65;3.30;;;19.10;63.40;;;;;;6247615;23;20156;-87
2022/06/07 06:52:13;;;;;;;9.53;3.63;;;19.20;63.70;;;;;;6245551;23;20164;-88
2022/06/07 06:54:39;;;;;;;3.33;2.77;;;19.30;63.10;;;;;;6245555;23;20522;-87
2022/06/07 06:57:06;;;;;;;4.30;3.13;;;19.80;61.40;;;;;;6245524;22;20153;-87
2022/06/07 06:59:32;;;;;;;8.70;4.57;;;20.20;60.50;;;;;;6246826;22;20445;-88
2022/06/07 07:01:58;;;;;;;8.60;3.37;;;20.50;58.80;;;;;;6245850;22;20387;-88
2022/06/07 07:04:24;;;;;;;4.90;3.27;;;20.50;59.50;;;;;;6248271;22;20379;-88
2022/06/07 07:06:51;;;;;;;12.83;4.13;;;20.60;58.80;;;;;;6247492;22;20375;-88
2022/06/07 07:09:19;;;;;;;3.37;2.90;;;20.60;58.10;;;;;;6245826;22;20403;-88
2022/06/07 07:11:51;;;;;;;5.73;3.07;;;20.70;58.90;;;;;;6246494;23;20435;-88
2022/06/07 07:14:17;;;;;;;4.70;3.13;;;20.90;58.50;;;;;;6245821;22;20429;-88
2022/06/07 07:16:47;;;;;;;7.27;2.70;;;21.10;56.80;;;;;;6247213;22;20376;-87
2022/06/07 07:19:14;;;;;;;5.37;3.80;;;21.40;55.30;;;;;;6249304;22;20398;-87
2022/06/07 07:21:44;;;;;;;8.53;3.63;;;21.40;54.80;;;;;;6248738;22;20437;-87
2022/06/07 07:24:17;;;;;;;11.30;4.50;;;21.00;56.60;;;;;;6249615;23;20383;-87
2022/06/07 07:26:44;;;;;;;7.10;3.60;;;20.70;57.50;;;;;;6250888;22;20388;-87
2022/06/07 07:29:13;;;;;;;7.13;3.57;;;20.50;58.30;;;;;;6249069;22;21064;-87
2022/06/07 07:31:39;;;;;;;10.83;4.13;;;20.70;58.80;;;;;;6250662;22;20378;-87
2022/06/07 07:34:08;;;;;;;5.57;3.40;;;20.70;58.80;;;;;;6252456;22;20372;-87
2022/06/07 07:36:35;;;;;;;10.20;4.03;;;20.50;58.70;;;;;;6251158;22;20148;-88
2022/06/07 07:39:01;;;;;;;7.07;3.70;;;20.40;59.40;;;;;;6251033;22;20403;-88
2022/06/07 07:41:33;;;;;;;5.07;3.40;;;20.40;59.10;;;;;;6223531;23;20395;-87
2022/06/07 07:44:01;;;;;;;6.77;4.90;;;20.60;58.00;;;;;;6249248;23;20388;-87
2022/06/07 07:46:30;;;;;;;7.63;4.10;;;20.60;59.20;;;;;;6251071;22;20376;-87
2022/06/07 07:48:56;;;;;;;7.50;3.77;;;20.60;59.10;;;;;;6245928;23;20411;-87
2022/06/07 07:51:28;;;;;;;8.97;3.70;;;20.50;59.30;;;;;;6247600;23;20410;-87
2022/06/07 07:53:57;;;;;;;9.00;4.00;;;20.80;58.50;;;;;;6249469;22;20375;-87
2022/06/07 07:56:23;;;;;;;4.30;3.30;;;20.80;57.50;;;;;;6247120;23;20449;-88
2022/06/07 07:58:50;;;;;;;5.50;3.73;;;20.70;58.40;;;;;;6246781;23;20395;-87
2022/06/07 08:01:18;;;;;;;4.63;2.90;;;20.60;59.30;;;;;;6247029;22;20391;-87
2022/06/07 08:03:44;;;;;;;7.07;3.50;;;20.80;58.60;;;;;;6246792;23;20380;-87
2022/06/07 08:06:15;;;;;;;7.27;4.07;;;20.90;59.50;;;;;;6248403;22;20376;-87
2022/06/07 08:08:41;;;;;;;7.27;4.47;;;20.80;59.20;;;;;;6250223;22;20398;-87
2022/06/07 08:11:07;;;;;;;5.87;4.10;;;20.70;58.40;;;;;;6249539;22;20403;-88
2022/06/07 08:13:33;;;;;;;7.70;3.30;;;20.50;58.30;;;;;;6225461;23;20165;-88
2022/06/07 08:15:59;;;;;;;7.13;3.90;;;20.80;58.20;;;;;;6250336;23;20461;-87
2022/06/07 08:18:26;;;;;;;9.17;3.80;;;20.90;57.90;;;;;;6245859;22;20536;-88
2022/06/07 08:20:58;;;;;;;6.27;3.60;;;20.80;57.50;;;;;;6247928;22;20387;-87
2022/06/07 08:23:24;;;;;;;5.07;2.40;;;20.90;58.30;;;;;;6248046;22;20356;-87
2022/06/07 08:25:50;;;;;;;5.80;2.70;;;21.40;55.50;;;;;;6246312;23;20745;-86
2022/06/07 08:28:16;;;;;;;2.83;2.43;;;21.50;54.50;;;;;;6245885;22;20435;-87
2022/06/07 08:30:46;;;;;;;4.50;2.40;;;21.40;56.00;;;;;;6245870;22;20494;-87
2022/06/07 08:38:41;;;;;;;5.63;2.60;;;21.20;54.40;;;;;;6247000;23;20446;-87
2022/06/07 08:41:34;;;;;;;4.00;2.17;;;21.00;55.90;;;;;;6245094;23;20853;-87
2022/06/07 08:44:12;;;;;;;3.40;2.23;;;21.10;54.40;;;;;;6247663;22;20422;-87
2022/06/07 08:46:39;;;;;;;2.30;1.93;;;21.10;54.70;;;;;;6247437;22;20837;-88
2022/06/07 08:49:05;;;;;;;4.80;2.20;;;20.80;56.70;;;;;;6247176;22;20704;-87
2022/06/07 08:51:50;;;;;;;3.67;2.30;;;20.60;57.60;;;;;;6247512;23;20388;-86
2022/06/07 08:54:22;;;;;;;5.93;2.50;;;20.50;57.50;;;;;;6245264;23;20777;-87
2022/06/07 08:56:47;;;;;;;4.20;2.10;;;20.90;56.00;;;;;;6247624;22;20410;-87
2022/06/07 08:59:17;;;;;;;6.60;2.40;;;21.20;55.30;;;;;;6246100;22;20407;-88
2022/06/07 09:02:41;;;;;;;2.20;2.00;;;21.10;56.50;;;;;;6220440;23;20160;-87
2022/06/07 09:05:12;;;;;;;6.87;2.50;;;21.00;56.90;;;;;;6100455;23;20387;-87
2022/06/07 09:07:38;;;;;;;6.07;2.10;;;20.90;57.00;;;;;;6100882;23;20465;-87
2022/06/07 09:13:25;;;;;;;2.80;2.10;;;21.10;56.00;;;;;;6248960;23;20487;-88
2022/06/07 09:15:54;;;;;;;5.77;2.50;;;21.30;54.90;;;;;;6215415;23;20821;-88
2022/06/07 09:18:25;;;;;;;1.67;1.50;;;21.10;56.00;;;;;;6247669;22;20388;-88
2022/06/07 09:20:54;;;;;;;6.70;2.07;;;21.20;56.00;;;;;;6245284;23;20371;-88
2022/06/07 09:23:31;;;;;;;3.97;2.27;;;21.60;54.10;;;;;;6246690;23;20403;-88
2022/06/07 09:26:17;;;;;;;4.50;2.10;;;21.80;53.70;;;;;;6246787;23;20383;-88
2022/06/07 09:28:47;;;;;;;5.20;2.27;;;21.80;54.40;;;;;;6247422;23;20395;-88
2022/06/07 09:31:18;;;;;;;3.37;2.30;;;21.90;54.20;;;;;;6248020;22;20360;-88
2022/06/07 09:33:56;;;;;;;2.10;1.87;;;22.00;53.90;;;;;;6248416;22;20355;-87
2022/06/07 09:36:37;;;;;;;3.10;1.73;;;22.00;54.00;;;;;;6246714;23;20442;-87
2022/06/07 09:39:08;;;;;;;2.07;1.70;;;22.00;56.00;;;;;;6247206;23;20406;-88
2022/06/07 09:41:40;;;;;;;4.07;1.87;;;22.00;56.20;;;;;;6246662;23;20379;-88
2022/06/07 09:44:31;;;;;;;4.17;1.90;;;21.90;57.00;;;;;;6247874;22;20384;-88
2022/06/07 09:47:10;;;;;;;4.70;1.73;;;21.70;57.90;;;;;;6247502;23;20433;-88
2022/06/07 09:49:41;;;;;;;2.60;1.70;;;21.50;58.90;;;;;;6250066;22;20418;-88
2022/06/07 09:52:24;;;;;;;7.90;2.00;;;21.50;59.20;;;;;;6246655;23;20400;-88
2022/06/07 09:55:04;;;;;;;1.93;1.70;;;21.90;57.40;;;;;;6246402;23;20423;-88
2022/06/07 09:57:38;;;;;;;3.00;1.57;;;22.10;56.70;;;;;;6245443;23;20447;-88
2022/06/07 10:00:20;;;;;;;4.47;1.80;;;22.00;57.60;;;;;;6246944;22;20725;-88
2022/06/07 10:03:43;;;;;;;2.70;1.50;;;21.70;59.50;;;;;;6248888;23;20439;-88
2022/06/07 10:06:14;;;;;;;1.60;1.50;;;21.60;60.10;;;;;;6178270;22;20375;-88
2022/06/07 10:08:41;;;;;;;2.43;1.87;;;21.80;59.20;;;;;;6246722;23;20403;-88
2022/06/07 10:11:43;;;;;;;2.70;1.57;;;21.80;59.90;;;;;;6246275;22;20435;-88
2022/06/07 10:14:21;;;;;;;4.37;2.50;;;22.10;58.10;;;;;;6246626;23;20382;-88
2022/06/07 10:16:52;;;;;;;2.97;2.00;;;22.40;56.80;;;;;;6246704;23;20417;-88
2022/06/07 10:19:34;;;;;;;2.43;2.10;;;22.60;56.50;;;;;;6247378;23;20396;-87
2022/06/07 10:22:00;;;;;;;2.23;1.80;;;22.60;56.90;;;;;;6248351;23;20375;-88
2022/06/07 10:24:38;;;;;;;2.60;2.40;;;22.50;58.20;;;;;;6247190;23;20380;-88
2022/06/07 10:27:22;;;;;;;3.80;2.20;;;22.70;56.50;;;;;;6248344;23;20182;-88
2022/06/07 10:30:07;;;;;;;3.47;2.03;;;22.50;56.90;;;;;;6247378;23;20368;-88
2022/06/07 10:32:51;;;;;;;3.87;2.23;;;22.50;57.80;;;;;;6246972;23;20371;-88
2022/06/07 10:35:24;;;;;;;9.13;2.03;;;22.80;56.50;;;;;;6248918;22;20407;-88
2022/06/07 10:38:24;;;;;;;3.17;1.90;;;22.90;56.50;;;;;;6246594;23;20549;-88
2022/06/07 10:40:52;;;;;;;2.17;1.97;;;23.40;55.30;;;;;;6247756;22;20380;-88
2022/06/07 10:43:18;;;;;;;2.80;2.53;;;23.50;54.00;;;;;;6247595;23;20376;-88
2022/06/07 10:45:45;;;;;;;3.90;1.80;;;23.40;54.70;;;;;;6247046;23;20379;-88
2022/06/07 10:48:20;;;;;;;4.43;2.70;;;23.30;55.60;;;;;;6246495;22;20185;-87
2022/06/07 10:51:07;;;;;;;3.00;2.80;;;23.30;57.20;;;;;;6223264;23;20375;-88
2022/06/07 10:53:44;;;;;;;4.23;1.97;;;23.10;57.80;;;;;;6249243;23;20371;-87
2022/06/07 10:56:25;;;;;;;3.47;1.90;;;23.40;56.50;;;;;;6254005;23;20411;-88
2022/06/07 10:58:57;;;;;;;2.90;1.40;;;23.50;56.20;;;;;;6246162;23;20399;-87
2022/06/07 11:01:37;;;;;;;2.50;1.83;;;23.50;55.70;;;;;;6249046;23;20394;-87
2022/06/07 11:10:26;;;;;;;3.60;2.60;;;23.60;55.40;;;;;;6252748;23;20742;-88
2022/06/07 11:13:04;;;;;;;3.10;1.97;;;23.90;53.40;;;;;;6250141;22;20437;-88
2022/06/07 11:15:40;;;;;;;3.83;3.10;;;23.90;52.80;;;;;;6249160;22;20745;-88
2022/06/07 11:18:14;;;;;;;2.43;2.23;;;23.80;52.40;;;;;;6247462;23;20463;-87
2022/06/07 11:21:02;;;;;;;3.40;2.50;;;23.60;53.20;;;;;;6247070;23;20473;-88
2022/06/07 11:23:34;;;;;;;3.10;2.57;;;23.60;53.80;;;;;;6248330;22;20403;-88
2022/06/07 11:26:01;;;;;;;4.30;3.30;;;23.50;56.20;;;;;;6247570;23;20387;-88
2022/06/07 11:28:48;;;;;;;4.63;2.40;;;23.30;56.80;;;;;;6250301;23;20403;-88
2022/06/07 11:31:23;;;;;;;2.43;2.13;;;23.60;55.30;;;;;;6248757;23;20387;-87
2022/06/07 11:33:52;;;;;;;2.70;1.97;;;24.00;54.10;;;;;;6247091;23;20379;-88
2022/06/07 11:36:25;;;;;;;2.00;1.80;;;24.20;53.20;;;;;;6248496;23;20453;-88
2022/06/07 11:38:57;;;;;;;3.67;3.10;;;24.30;52.70;;;;;;6248447;23;20432;-88
2022/06/07 11:41:38;;;;;;;3.17;2.60;;;24.40;51.60;;;;;;6249702;22;20371;-87
2022/06/07 11:44:10;;;;;;;2.23;1.93;;;24.20;51.90;;;;;;6248387;23;20379;-87
2022/06/07 11:46:36;;;;;;;3.67;2.13;;;24.20;53.20;;;;;;6248776;22;20398;-88
2022/06/07 11:49:20;;;;;;;3.83;2.80;;;24.20;52.50;;;;;;6250769;23;20387;-87
2022/06/07 11:52:13;;;;;;;3.23;3.00;;;24.40;52.40;;;;;;6248648;23;20246;-87
2022/06/07 11:54:54;;;;;;;2.83;2.60;;;24.10;52.90;;;;;;6249542;23;20510;-87
2022/06/07 11:57:32;;;;;;;4.17;3.00;;;24.00;53.60;;;;;;6248323;23;20376;-88
2022/06/07 12:00:19;;;;;;;2.83;2.17;;;23.90;54.70;;;;;;6248516;23;20839;-85
2022/06/07 12:02:55;;;;;;;2.10;1.90;;;23.90;54.90;;;;;;6247485;23;20391;-87
2022/06/07 12:05:28;;;;;;;2.90;2.00;;;24.20;52.60;;;;;;6247267;22;20374;-87
2022/06/07 12:08:00;;;;;;;2.73;2.53;;;24.20;53.00;;;;;;6245371;23;20411;-87
2022/06/07 12:10:29;;;;;;;3.60;2.70;;;24.20;53.20;;;;;;6245052;22;20403;-87
2022/06/07 12:13:14;;;;;;;3.30;2.03;;;24.20;53.00;;;;;;6245522;23;20376;-85
2022/06/07 12:15:50;;;;;;;2.30;2.10;;;24.00;55.30;;;;;;6245604;23;20503;-87
2022/06/07 12:18:26;;;;;;;2.37;2.00;;;24.00;54.30;;;;;;6245353;23;20399;-88
2022/06/07 12:20:54;;;;;;;2.50;2.27;;;24.40;52.50;;;;;;6245728;23;20374;-87
2022/06/07 12:23:29;;;;;;;5.40;2.20;;;24.50;52.30;;;;;;6245245;22;20897;-87
2022/06/07 12:26:01;;;;;;;3.73;1.90;;;24.40;52.30;;;;;;6246051;23;20375;-87
2022/06/07 12:28:33;;;;;;;2.27;2.07;;;24.40;51.20;;;;;;6248470;22;20399;-87
2022/06/07 12:31:12;;;;;;;2.23;1.50;;;24.20;52.10;;;;;;6246776;23;20372;-88
2022/06/07 12:33:39;;;;;;;2.87;1.50;;;24.10;51.70;;;;;;6246665;23;20378;-86
2022/06/07 12:36:19;;;;;;;3.53;1.70;;;23.80;53.60;;;;;;6249374;22;20514;-88
2022/06/07 12:38:47;;;;;;;2.27;1.60;;;23.60;55.40;;;;;;6254429;23;20403;-88
2022/06/07 12:41:15;;;;;;;1.83;1.53;;;24.00;52.70;;;;;;6257676;22;20380;-87
2022/06/07 12:44:06;;;;;;;1.40;1.27;;;24.00;51.40;;;;;;6256466;22;20425;-87
2022/06/07 12:46:42;;;;;;;1.70;1.30;;;23.80;51.90;;;;;;6256932;23;20435;-87
2022/06/07 12:49:22;;;;;;;1.90;1.43;;;23.70;54.40;;;;;;6252610;22;20473;-87
2022/06/07 12:52:20;;;;;;;3.40;1.37;;;23.80;53.40;;;;;;6246906;22;20713;-87
2022/06/07 12:54:52;;;;;;;1.50;1.40;;;23.90;54.60;;;;;;6245626;23;20506;-87
2022/06/07 12:57:26;;;;;;;2.50;1.10;;;24.10;52.30;;;;;;6246177;23;20372;-86
2022/06/07 12:59:54;;;;;;;2.30;1.37;;;24.00;51.60;;;;;;6244715;23;20376;-87
2022/06/07 13:02:31;;;;;;;2.57;2.17;;;23.70;54.40;;;;;;6244485;22;20387;-87
2022/06/07 13:05:00;;;;;;;2.87;1.27;;;23.70;55.30;;;;;;6244136;23;20458;-87
2022/06/07 13:07:48;;;;;;;6.67;1.47;;;23.70;55.00;;;;;;6246357;23;20419;-87
2022/06/07 13:10:26;;;;;;;2.27;1.40;;;23.50;54.40;;;;;;6245567;22;20399;-88
2022/06/07 13:12:54;;;;;;;1.43;1.33;;;23.60;54.90;;;;;;6246284;23;20835;-87
2022/06/07 13:15:27;;;;;;;2.00;1.30;;;24.00;54.50;;;;;;6246372;22;20765;-87
2022/06/07 13:18:05;;;;;;;1.80;1.70;;;24.10;53.90;;;;;;6221720;23;20404;-88
2022/06/07 13:20:39;;;;;;;1.93;1.30;;;24.10;53.80;;;;;;6244232;23;20622;-87
2022/06/07 13:23:31;;;;;;;3.23;1.60;;;24.20;53.40;;;;;;6245521;22;20355;-89
2022/06/07 13:26:15;;;;;;;1.33;1.10;;;24.50;51.70;;;;;;6243664;23;20406;-89
2022/06/07 13:28:42;;;;;;;2.43;1.60;;;24.50;52.30;;;;;;6249956;23;20409;-88
2022/06/07 13:31:49;;;;;;;1.83;1.73;;;24.80;50.10;;;;;;6244021;22;20381;-89